IGO6457 VOML-VIDP
Flight info
| Callsign | IGO6457 |
|---|---|
| Flight time | N/A |
| Altitude | 38000 |
| Route | MML Q12 KANTI W15 GGO/N0448F390 W67 MPG J5 PEGBO W67 EPKOS/N0447F380 W128 PPN/N0447F390 J40 SRD Z11 PUNOR Z4 UPMAV W79 BPL/N0450F380 Q24 BAVOX BAVOX6C |
| Aircraft | A20N/M-SDE2E3FGHIRWXY/LB1 |
Departure
| Time | 2026-05-06 01:54 |
|---|---|
| Airport | Mangaluru International Airport (VOML) |
Arrival
| Time | N/A |
|---|---|
| Airport | Indira Gandhi International Airport (VIDP) |
| Time | Latitude | Longitude | Altitude | Speed | Heading |
|---|---|---|---|---|---|
| 2026-05-06 01:42 | 12.94959 | 74.87185 | 321 ft | 0 kts | 6° |
| 2026-05-06 01:44 | 12.94957 | 74.87185 | 321 ft | 2 kts | 6° |
| 2026-05-06 01:44 | 12.94952 | 74.87184 | 321 ft | 0 kts | 6° |
| 2026-05-06 01:45 | 12.94931 | 74.87181 | 321 ft | 2 kts | 8° |
| 2026-05-06 01:45 | 12.94920 | 74.87180 | 318 ft | 2 kts | 9° |
| 2026-05-06 01:45 | 12.94904 | 74.87177 | 320 ft | 2 kts | 12° |
| 2026-05-06 01:45 | 12.94888 | 74.87172 | 320 ft | 2 kts | 23° |
| 2026-05-06 01:46 | 12.94875 | 74.87161 | 320 ft | 2 kts | 82° |
| 2026-05-06 01:46 | 12.94876 | 74.87151 | 319 ft | 1 kts | 108° |
| 2026-05-06 01:46 | 12.94877 | 74.87150 | 319 ft | 0 kts | 108° |
| 2026-05-06 01:49 | 12.94874 | 74.87156 | 320 ft | 4 kts | 110° |
| 2026-05-06 01:49 | 12.94854 | 74.87221 | 321 ft | 12 kts | 99° |
| 2026-05-06 01:49 | 12.94880 | 74.87296 | 321 ft | 11 kts | 58° |
| 2026-05-06 01:50 | 12.94921 | 74.87363 | 321 ft | 11 kts | 58° |
| 2026-05-06 01:50 | 12.94962 | 74.87431 | 321 ft | 11 kts | 57° |
| 2026-05-06 01:50 | 12.95003 | 74.87497 | 321 ft | 11 kts | 57° |
| 2026-05-06 01:50 | 12.95016 | 74.87565 | 319 ft | 10 kts | 122° |
| 2026-05-06 01:51 | 12.94964 | 74.87608 | 321 ft | 6 kts | 149° |
| 2026-05-06 01:51 | 12.94961 | 74.87609 | 321 ft | 0 kts | 149° |
| 2026-05-06 01:51 | 12.94958 | 74.87611 | 321 ft | 0 kts | 149° |
| 2026-05-06 01:51 | 12.94948 | 74.87617 | 321 ft | 6 kts | 149° |
| 2026-05-06 01:52 | 12.94876 | 74.87663 | 319 ft | 11 kts | 146° |
| 2026-05-06 01:52 | 12.94870 | 74.87697 | 319 ft | 5 kts | 71° |
| 2026-05-06 01:52 | 12.94879 | 74.87714 | 318 ft | 0 kts | 58° |
| 2026-05-06 01:53 | 12.94914 | 74.87772 | 319 ft | 27 kts | 58° |
| 2026-05-06 01:53 | 12.95126 | 74.88124 | 321 ft | 90 kts | 58° |
| 2026-05-06 01:53 | 12.95561 | 74.88838 | 325 ft | 142 kts | 58° |
| 2026-05-06 01:54 | 12.96070 | 74.89671 | 861 ft | 131 kts | 57° |
| 2026-05-06 01:54 | 12.96565 | 74.90489 | 1272 ft | 139 kts | 57° |
| 2026-05-06 01:54 | 12.97081 | 74.91345 | 1683 ft | 141 kts | 53° |
| 2026-05-06 01:54 | 12.97601 | 74.92205 | 2072 ft | 152 kts | 56° |
| 2026-05-06 01:55 | 12.98365 | 74.93069 | 2344 ft | 179 kts | 33° |
| 2026-05-06 01:55 | 12.99572 | 74.93661 | 2641 ft | 205 kts | 17° |
| 2026-05-06 01:55 | 13.01014 | 74.93974 | 3164 ft | 217 kts | 5° |
| 2026-05-06 01:55 | 13.02580 | 74.93995 | 3594 ft | 236 kts | 353° |
| 2026-05-06 01:56 | 13.04264 | 74.93652 | 3992 ft | 254 kts | 344° |
| 2026-05-06 01:56 | 13.05910 | 74.92966 | 4691 ft | 259 kts | 329° |
| 2026-05-06 01:56 | 13.07433 | 74.91934 | 5453 ft | 264 kts | 325° |
| 2026-05-06 01:56 | 13.08932 | 74.90813 | 6170 ft | 269 kts | 324° |
| 2026-05-06 01:57 | 13.10427 | 74.89669 | 6789 ft | 274 kts | 324° |
| 2026-05-06 01:57 | 13.11966 | 74.88476 | 7430 ft | 280 kts | 324° |
| 2026-05-06 01:57 | 13.13521 | 74.87258 | 8104 ft | 284 kts | 324° |
| 2026-05-06 01:57 | 13.15107 | 74.86002 | 8797 ft | 289 kts | 324° |
| 2026-05-06 01:58 | 13.16703 | 74.84723 | 9483 ft | 294 kts | 324° |
| 2026-05-06 01:58 | 13.18327 | 74.83409 | 10139 ft | 300 kts | 324° |
| 2026-05-06 01:58 | 13.20010 | 74.82040 | 10482 ft | 317 kts | 324° |
| 2026-05-06 01:58 | 13.21811 | 74.80659 | 10746 ft | 335 kts | 327° |
| 2026-05-06 01:59 | 13.23806 | 74.79306 | 11206 ft | 344 kts | 330° |
| 2026-05-06 01:59 | 13.25887 | 74.78062 | 11782 ft | 348 kts | 333° |
| 2026-05-06 01:59 | 13.28043 | 74.76891 | 12382 ft | 352 kts | 334° |
| 2026-05-06 01:59 | 13.30249 | 74.75764 | 12998 ft | 356 kts | 335° |
| 2026-05-06 02:00 | 13.32469 | 74.74666 | 13614 ft | 360 kts | 335° |
| 2026-05-06 02:00 | 13.34751 | 74.73549 | 14181 ft | 365 kts | 335° |
| 2026-05-06 02:00 | 13.37050 | 74.72426 | 14766 ft | 368 kts | 335° |
| 2026-05-06 02:00 | 13.39378 | 74.71285 | 15370 ft | 371 kts | 334° |
| 2026-05-06 02:01 | 13.41701 | 74.70142 | 15986 ft | 373 kts | 334° |
| 2026-05-06 02:01 | 13.44053 | 74.68981 | 16600 ft | 375 kts | 333° |
| 2026-05-06 02:01 | 13.46402 | 74.67819 | 17186 ft | 377 kts | 333° |
| 2026-05-06 02:01 | 13.48777 | 74.66641 | 17740 ft | 379 kts | 333° |
| 2026-05-06 02:02 | 13.51154 | 74.65459 | 18245 ft | 382 kts | 333° |
| 2026-05-06 02:02 | 13.53559 | 74.64260 | 18671 ft | 384 kts | 332° |
| 2026-05-06 02:02 | 13.55973 | 74.63054 | 19084 ft | 387 kts | 332° |
| 2026-05-06 02:02 | 13.58370 | 74.61855 | 19485 ft | 390 kts | 332° |
| 2026-05-06 02:03 | 13.60807 | 74.60634 | 19888 ft | 392 kts | 332° |
| 2026-05-06 02:03 | 13.63277 | 74.59394 | 20300 ft | 394 kts | 332° |
| 2026-05-06 02:03 | 13.65747 | 74.58155 | 20707 ft | 397 kts | 332° |
| 2026-05-06 02:03 | 13.68254 | 74.56896 | 21120 ft | 399 kts | 332° |
| 2026-05-06 02:04 | 13.70756 | 74.55639 | 21531 ft | 401 kts | 332° |
| 2026-05-06 02:04 | 13.73278 | 74.54372 | 21936 ft | 404 kts | 332° |
| 2026-05-06 02:04 | 13.75796 | 74.53106 | 22337 ft | 406 kts | 332° |
| 2026-05-06 02:04 | 13.78322 | 74.51836 | 22740 ft | 409 kts | 332° |
| 2026-05-06 02:05 | 13.80886 | 74.50547 | 23134 ft | 411 kts | 332° |
| 2026-05-06 02:05 | 13.83463 | 74.49250 | 23506 ft | 413 kts | 332° |
| 2026-05-06 02:05 | 13.86055 | 74.47946 | 23815 ft | 416 kts | 332° |
| 2026-05-06 02:05 | 13.88661 | 74.46634 | 24143 ft | 418 kts | 332° |
| 2026-05-06 02:06 | 13.91277 | 74.45316 | 24477 ft | 420 kts | 332° |
| 2026-05-06 02:06 | 13.93892 | 74.43998 | 24824 ft | 422 kts | 332° |
| 2026-05-06 02:06 | 13.96560 | 74.42652 | 25178 ft | 423 kts | 332° |
| 2026-05-06 02:06 | 13.99210 | 74.41315 | 25526 ft | 425 kts | 333° |
| 2026-05-06 02:07 | 14.01869 | 74.39974 | 25868 ft | 428 kts | 333° |
| 2026-05-06 02:07 | 14.04551 | 74.38621 | 26203 ft | 430 kts | 333° |
| 2026-05-06 02:07 | 14.07248 | 74.37259 | 26530 ft | 432 kts | 333° |
| 2026-05-06 02:07 | 14.09921 | 74.35910 | 26848 ft | 434 kts | 333° |
| 2026-05-06 02:08 | 14.12640 | 74.34538 | 27172 ft | 436 kts | 333° |
| 2026-05-06 02:08 | 14.15374 | 74.33157 | 27491 ft | 438 kts | 333° |
| 2026-05-06 02:08 | 14.18116 | 74.31771 | 27790 ft | 440 kts | 333° |
| 2026-05-06 02:08 | 14.20887 | 74.30373 | 28090 ft | 442 kts | 333° |
| 2026-05-06 02:09 | 14.23723 | 74.29119 | 28386 ft | 445 kts | 337° |
| 2026-05-06 02:09 | 14.26615 | 74.27962 | 28684 ft | 447 kts | 338° |
| 2026-05-06 02:09 | 14.29539 | 74.26841 | 28978 ft | 449 kts | 339° |
| 2026-05-06 02:09 | 14.32475 | 74.25732 | 29248 ft | 451 kts | 339° |
| 2026-05-06 02:10 | 14.35398 | 74.24629 | 29515 ft | 453 kts | 339° |
| 2026-05-06 02:10 | 14.38374 | 74.23500 | 29793 ft | 455 kts | 339° |
| 2026-05-06 02:10 | 14.41350 | 74.22362 | 30048 ft | 457 kts | 339° |
| 2026-05-06 02:10 | 14.44334 | 74.21214 | 30278 ft | 459 kts | 338° |
| 2026-05-06 02:11 | 14.47323 | 74.20058 | 30501 ft | 460 kts | 338° |
| 2026-05-06 02:11 | 14.50328 | 74.18891 | 30751 ft | 461 kts | 338° |
| 2026-05-06 02:11 | 14.53324 | 74.17726 | 31072 ft | 460 kts | 338° |
| 2026-05-06 02:11 | 14.56326 | 74.16557 | 31424 ft | 459 kts | 338° |
| 2026-05-06 02:12 | 14.59276 | 74.15408 | 31728 ft | 458 kts | 338° |
| 2026-05-06 02:12 | 14.62236 | 74.14230 | 32043 ft | 457 kts | 337° |
| 2026-05-06 02:12 | 14.65185 | 74.12999 | 32359 ft | 456 kts | 336° |
| 2026-05-06 02:12 | 14.68120 | 74.11736 | 32663 ft | 455 kts | 336° |
| 2026-05-06 02:13 | 14.71034 | 74.10460 | 32959 ft | 455 kts | 336° |
| 2026-05-06 02:13 | 14.73931 | 74.09182 | 33258 ft | 454 kts | 335° |
| 2026-05-06 02:13 | 14.76856 | 74.07889 | 33552 ft | 453 kts | 335° |
| 2026-05-06 02:13 | 14.79713 | 74.06627 | 33851 ft | 452 kts | 336° |
| 2026-05-06 02:14 | 14.82613 | 74.05347 | 34085 ft | 452 kts | 336° |
| 2026-05-06 02:14 | 14.85515 | 74.04068 | 34313 ft | 452 kts | 336° |
| 2026-05-06 02:14 | 14.88412 | 74.02793 | 34553 ft | 451 kts | 336° |
| 2026-05-06 02:14 | 14.91293 | 74.01526 | 34796 ft | 450 kts | 336° |
| 2026-05-06 02:15 | 14.94180 | 74.00257 | 35024 ft | 450 kts | 336° |
| 2026-05-06 02:15 | 14.97067 | 73.98988 | 35247 ft | 450 kts | 336° |
| 2026-05-06 02:15 | 14.99938 | 73.97726 | 35469 ft | 449 kts | 336° |
| 2026-05-06 02:15 | 15.02812 | 73.96462 | 35697 ft | 448 kts | 336° |
| 2026-05-06 02:16 | 15.05679 | 73.95201 | 35900 ft | 448 kts | 336° |
| 2026-05-06 02:16 | 15.08539 | 73.93943 | 36111 ft | 447 kts | 336° |
| 2026-05-06 02:16 | 15.11412 | 73.92679 | 36317 ft | 447 kts | 336° |
| 2026-05-06 02:16 | 15.14236 | 73.91436 | 36514 ft | 446 kts | 336° |
| 2026-05-06 02:17 | 15.17095 | 73.90178 | 36713 ft | 446 kts | 336° |
| 2026-05-06 02:17 | 15.19956 | 73.88918 | 36895 ft | 446 kts | 336° |
| 2026-05-06 02:17 | 15.22813 | 73.87659 | 37088 ft | 445 kts | 336° |
| 2026-05-06 02:17 | 15.25669 | 73.86400 | 37272 ft | 445 kts | 336° |
| 2026-05-06 02:18 | 15.28519 | 73.85144 | 37452 ft | 445 kts | 336° |
| 2026-05-06 02:18 | 15.31375 | 73.83885 | 37619 ft | 445 kts | 336° |
| 2026-05-06 02:18 | 15.34232 | 73.82676 | 37800 ft | 445 kts | 340° |
| 2026-05-06 02:18 | 15.37175 | 73.81807 | 37846 ft | 445 kts | 348° |
| 2026-05-06 02:19 | 15.40240 | 73.81482 | 37856 ft | 444 kts | 359° |
| 2026-05-06 02:19 | 15.43333 | 73.81661 | 37855 ft | 444 kts | 4° |
| 2026-05-06 02:19 | 15.49487 | 73.82466 | 37856 ft | 445 kts | 7° |
| 2026-05-06 02:20 | 15.58675 | 73.83823 | 37864 ft | 446 kts | 6° |
| 2026-05-06 02:21 | 15.64836 | 73.84648 | 37871 ft | 446 kts | 6° |
| 2026-05-06 02:21 | 15.70992 | 73.85430 | 37885 ft | 446 kts | 6° |
| 2026-05-06 02:22 | 15.77119 | 73.86515 | 37897 ft | 446 kts | 11° |
| 2026-05-06 02:22 | 15.83123 | 73.87990 | 37899 ft | 446 kts | 13° |
| 2026-05-06 02:23 | 15.89155 | 73.89606 | 37904 ft | 447 kts | 13° |
| 2026-05-06 02:23 | 15.95170 | 73.91253 | 37904 ft | 447 kts | 13° |
| 2026-05-06 02:24 | 16.01160 | 73.92890 | 37910 ft | 447 kts | 13° |
| 2026-05-06 02:24 | 16.07172 | 73.94525 | 37915 ft | 447 kts | 13° |
| 2026-05-06 02:25 | 16.13206 | 73.96163 | 37913 ft | 447 kts | 13° |
| 2026-05-06 02:25 | 16.19223 | 73.97796 | 37919 ft | 447 kts | 13° |
| 2026-05-06 02:26 | 16.25244 | 73.99244 | 37914 ft | 446 kts | 10° |
| 2026-05-06 02:26 | 16.31354 | 74.00503 | 37916 ft | 446 kts | 9° |
| 2026-05-06 02:27 | 16.37456 | 74.01716 | 37916 ft | 446 kts | 9° |
| 2026-05-06 02:27 | 16.43520 | 74.02935 | 37923 ft | 446 kts | 9° |
| 2026-05-06 02:28 | 16.49626 | 74.04178 | 37921 ft | 446 kts | 9° |
| 2026-05-06 02:28 | 16.55736 | 74.05431 | 37920 ft | 446 kts | 9° |
| 2026-05-06 02:29 | 16.61832 | 74.06683 | 37920 ft | 446 kts | 9° |
| 2026-05-06 02:29 | 16.67900 | 74.07930 | 37922 ft | 446 kts | 9° |
| 2026-05-06 02:30 | 16.74010 | 74.09186 | 37923 ft | 446 kts | 9° |
| 2026-05-06 02:30 | 16.80083 | 74.10434 | 37918 ft | 446 kts | 9° |
| 2026-05-06 02:31 | 16.85160 | 74.11475 | 37917 ft | 446 kts | 8° |
| 2026-05-06 02:31 | 16.92335 | 74.11619 | 37920 ft | 441 kts | 352° |
| 2026-05-06 02:32 | 16.97399 | 74.10895 | 37918 ft | 441 kts | 349° |
| 2026-05-06 02:32 | 17.04471 | 74.09763 | 37927 ft | 441 kts | 350° |
| 2026-05-06 02:33 | 17.09539 | 74.09011 | 37923 ft | 441 kts | 350° |
| 2026-05-06 02:33 | 17.11558 | 74.08727 | 37923 ft | 442 kts | 351° |
| 2026-05-06 02:34 | 17.21733 | 74.07357 | 37923 ft | 442 kts | 351° |
| 2026-05-06 02:34 | 17.27839 | 74.06545 | 37927 ft | 442 kts | 351° |
| 2026-05-06 02:35 | 17.33899 | 74.05736 | 37932 ft | 442 kts | 351° |
| 2026-05-06 02:35 | 17.39991 | 74.04920 | 37929 ft | 442 kts | 351° |
| 2026-05-06 02:36 | 17.46108 | 74.04099 | 37930 ft | 441 kts | 351° |
| 2026-05-06 02:36 | 17.52212 | 74.03279 | 37933 ft | 441 kts | 351° |
| 2026-05-06 02:37 | 17.58263 | 74.02465 | 37931 ft | 442 kts | 351° |
| 2026-05-06 02:37 | 17.64389 | 74.01640 | 37933 ft | 442 kts | 351° |
| 2026-05-06 02:38 | 17.70478 | 74.00821 | 37934 ft | 442 kts | 351° |
| 2026-05-06 02:38 | 17.76540 | 74.00004 | 37932 ft | 442 kts | 351° |
| 2026-05-06 02:39 | 17.82679 | 73.99176 | 37939 ft | 442 kts | 351° |
| 2026-05-06 02:39 | 17.88772 | 73.98354 | 37936 ft | 442 kts | 350° |
| 2026-05-06 02:40 | 17.94830 | 73.97536 | 37931 ft | 442 kts | 350° |
| 2026-05-06 02:40 | 18.00962 | 73.96707 | 37937 ft | 442 kts | 350° |
| 2026-05-06 02:41 | 18.07068 | 73.95967 | 37937 ft | 442 kts | 352° |
| 2026-05-06 02:41 | 18.13174 | 73.95380 | 37941 ft | 442 kts | 353° |
| 2026-05-06 02:42 | 18.19303 | 73.94818 | 37940 ft | 442 kts | 353° |
| 2026-05-06 02:42 | 18.25445 | 73.94241 | 37944 ft | 442 kts | 352° |
| 2026-05-06 02:43 | 18.31585 | 73.93651 | 37943 ft | 442 kts | 352° |
| 2026-05-06 02:43 | 18.37676 | 73.93060 | 37945 ft | 442 kts | 352° |
| 2026-05-06 02:44 | 18.43807 | 73.92464 | 37942 ft | 442 kts | 352° |
| 2026-05-06 02:44 | 18.49945 | 73.91867 | 37945 ft | 441 kts | 352° |
| 2026-05-06 02:45 | 18.56043 | 73.91446 | 37948 ft | 443 kts | 0° |
| 2026-05-06 02:45 | 18.62102 | 73.92769 | 37951 ft | 448 kts | 18° |
| 2026-05-06 02:46 | 18.67877 | 73.95299 | 37950 ft | 450 kts | 21° |
| 2026-05-06 02:46 | 18.73606 | 73.97983 | 37952 ft | 450 kts | 21° |
| 2026-05-06 02:47 | 18.79327 | 74.00592 | 37948 ft | 449 kts | 21° |
| 2026-05-06 02:47 | 18.85065 | 74.03131 | 37955 ft | 449 kts | 20° |
| 2026-05-06 02:48 | 18.90841 | 74.05657 | 37953 ft | 448 kts | 20° |
| 2026-05-06 02:48 | 18.96614 | 74.08180 | 37953 ft | 448 kts | 20° |
| 2026-05-06 02:49 | 19.02372 | 74.10700 | 37955 ft | 447 kts | 20° |
| 2026-05-06 02:49 | 19.08086 | 74.13208 | 37957 ft | 447 kts | 20° |
| 2026-05-06 02:50 | 19.13837 | 74.15735 | 37960 ft | 447 kts | 20° |
| 2026-05-06 02:50 | 19.19567 | 74.18254 | 37959 ft | 444 kts | 20° |
| 2026-05-06 02:51 | 19.25283 | 74.20760 | 37958 ft | 443 kts | 20° |
| 2026-05-06 02:51 | 19.30952 | 74.23242 | 37958 ft | 443 kts | 20° |
| 2026-05-06 02:52 | 19.36662 | 74.25743 | 37958 ft | 443 kts | 20° |
| 2026-05-06 02:52 | 19.42333 | 74.28232 | 37957 ft | 443 kts | 20° |
| 2026-05-06 02:53 | 19.48029 | 74.30734 | 37953 ft | 443 kts | 20° |
| 2026-05-06 02:53 | 19.53746 | 74.33247 | 37956 ft | 443 kts | 20° |
| 2026-05-06 02:54 | 19.59408 | 74.35737 | 37953 ft | 443 kts | 20° |
| 2026-05-06 02:54 | 19.65110 | 74.38247 | 37954 ft | 443 kts | 20° |
| 2026-05-06 02:55 | 19.70840 | 74.40717 | 37957 ft | 443 kts | 18° |
| 2026-05-06 02:55 | 19.76573 | 74.42991 | 37957 ft | 443 kts | 17° |
| 2026-05-06 02:56 | 19.82375 | 74.45244 | 37953 ft | 444 kts | 17° |
| 2026-05-06 02:56 | 19.88198 | 74.47520 | 37952 ft | 444 kts | 17° |
| 2026-05-06 02:57 | 19.93963 | 74.49794 | 37952 ft | 445 kts | 17° |
| 2026-05-06 02:57 | 19.99780 | 74.52097 | 37950 ft | 445 kts | 17° |
| 2026-05-06 02:58 | 20.05592 | 74.54403 | 37956 ft | 445 kts | 17° |
| 2026-05-06 02:58 | 20.11370 | 74.56696 | 37953 ft | 446 kts | 17° |
| 2026-05-06 02:59 | 20.17194 | 74.59008 | 37946 ft | 446 kts | 17° |
| 2026-05-06 02:59 | 20.23022 | 74.61323 | 37945 ft | 447 kts | 17° |
| 2026-05-06 03:00 | 20.28818 | 74.63627 | 37947 ft | 447 kts | 17° |
| 2026-05-06 03:00 | 20.34648 | 74.65947 | 37942 ft | 447 kts | 17° |
| 2026-05-06 03:01 | 20.40501 | 74.68278 | 37940 ft | 448 kts | 17° |
| 2026-05-06 03:01 | 20.46334 | 74.70604 | 37937 ft | 448 kts | 17° |